Time;durP1;ratioP1;P1;durP2;ratioP2;P2;SDS_P1;SDS_P2;PMS_P1;PMS_P2;Temp;Humidity;BMP_temperature;BMP_pressure;BME280_temperature;BME280_humidity;BME280_pressure;Samples;Min_cycle;Max_cycle;Signal;HPM_P1;HPM_P2
2022/05/07 00:02:24;;;;;;;33.25;15.88;;;;;;;;;;6183680;23;20075;-88
2022/05/07 00:04:51;;;;;;;29.67;15.70;;;;;;;;;;6183132;23;20028;-88
2022/05/07 00:07:17;;;;;;;26.10;14.93;;;;;;;;;;6183710;23;20248;-87
2022/05/07 00:09:57;;;;;;;26.90;15.18;;;;;;;;;;6158436;23;20056;-88
2022/05/07 00:12:24;;;;;;;30.17;14.90;;;;;;;;;;6182569;23;20051;-87
2022/05/07 00:14:57;;;;;;;27.50;13.95;;;;;;;;;;6183364;23;20045;-87
2022/05/07 00:20:15;;;;;;;21.65;14.43;;;;;;;;;;6183147;23;20017;-87
2022/05/07 00:22:42;;;;;;;22.95;13.98;;;;;;;;;;6156754;23;20363;-87
2022/05/07 00:25:08;;;;;;;23.48;13.40;;;;;;;;;;6182627;23;20417;-87
2022/05/07 00:27:41;;;;;;;21.48;14.27;;;;;;;;;;6181885;23;20032;-86
2022/05/07 00:30:08;;;;;;;28.67;14.63;;;;;;;;;;6157363;23;20028;-88
2022/05/07 00:32:34;;;;;;;24.75;15.85;;;;;;;;;;6155986;23;20021;-88
2022/05/07 00:35:10;;;;;;;28.17;16.52;;;;;;;;;;6182919;23;20107;-88
2022/05/07 00:37:37;;;;;;;29.25;16.75;;;;;;;;;;6156782;23;20021;-87
2022/05/07 00:40:04;;;;;;;29.23;18.33;;;;;;;;;;6182803;23;20474;-88
2022/05/07 00:42:38;;;;;;;28.52;15.45;;;;;;;;;;6158738;23;20409;-87
2022/05/07 00:45:05;;;;;;;30.25;18.63;;;;;;;;;;6158600;23;20796;-87
2022/05/07 00:47:34;;;;;;;28.85;20.00;;;;;;;;;;6155093;23;20044;-86
2022/05/07 00:52:53;;;;;;;32.15;20.60;;;;;;;;;;6184596;23;20021;-87
2022/05/07 00:55:25;;;;;;;34.75;19.90;;;;;;;;;;6159546;23;20021;-88
2022/05/07 00:57:53;;;;;;;30.00;18.45;;;;;;;;;;6184158;23;20048;-88
2022/05/07 01:00:20;;;;;;;26.80;16.75;;;;;;;;;;6159334;23;20343;-87
2022/05/07 01:02:53;;;;;;;30.02;18.80;;;;;;;;;;6183980;23;20021;-87
2022/05/07 01:05:20;;;;;;;33.10;19.45;;;;;;;;;;6158414;23;20060;-87
2022/05/07 01:07:46;;;;;;;34.55;17.77;;;;;;;;;;6184455;23;20056;-87
2022/05/07 01:10:26;;;;;;;32.22;20.83;;;;;;;;;;6153143;23;20080;-88
2022/05/07 01:12:59;;;;;;;38.88;21.77;;;;;;;;;;6153731;23;20052;-84
2022/05/07 01:15:41;;;;;;;32.50;20.13;;;;;;;;;;6154263;23;20022;-84
2022/05/07 01:18:07;;;;;;;32.65;20.45;;;;;;;;;;6152836;23;20025;-88
2022/05/07 01:20:41;;;;;;;28.10;17.95;;;;;;;;;;6154132;23;20451;-85
2022/05/07 01:23:07;;;;;;;26.70;14.87;;;;;;;;;;6154458;23;20388;-87
2022/05/07 01:25:34;;;;;;;14.57;8.60;;;;;;;;;;6152826;23;20092;-87
2022/05/07 01:28:07;;;;;;;17.92;9.95;;;;;;;;;;6153679;23;20483;-87
2022/05/07 01:30:34;;;;;;;14.65;5.93;;;;;;;;;;6153254;23;20093;-86
2022/05/07 01:33:00;;;;;;;11.73;4.77;;;;;;;;;;6152716;23;20534;-86
2022/05/07 01:35:33;;;;;;;12.85;5.38;;;;;;;;;;6152711;23;20044;-85
2022/05/07 01:37:59;;;;;;;15.90;5.47;;;;;;;;;;6153001;23;20021;-85
2022/05/07 01:40:26;;;;;;;15.40;6.22;;;;;;;;;;6154585;23;20096;-85
2022/05/07 01:42:59;;;;;;;11.82;5.47;;;;;;;;;;6154541;23;20560;-88
2022/05/07 01:45:26;;;;;;;14.95;4.88;;;;;;;;;;6154076;23;20105;-87
2022/05/07 01:48:10;;;;;;;12.93;4.30;;;;;;;;;;6153957;23;20017;-85
2022/05/07 01:50:43;;;;;;;8.40;4.38;;;;;;;;;;6152445;23;20486;-85
2022/05/07 01:53:11;;;;;;;12.57;3.75;;;;;;;;;;6153726;23;20080;-87
2022/05/07 01:55:38;;;;;;;8.60;3.60;;;;;;;;;;6153387;23;20024;-86
2022/05/07 01:58:11;;;;;;;10.63;3.53;;;;;;;;;;6153272;23;20025;-88
2022/05/07 02:00:41;;;;;;;14.07;3.33;;;;;;;;;;6151965;23;20092;-85
2022/05/07 02:03:08;;;;;;;12.38;3.90;;;;;;;;;;6153220;23;20022;-86
2022/05/07 02:05:42;;;;;;;14.10;3.53;;;;;;;;;;6154589;23;20104;-84
2022/05/07 02:08:08;;;;;;;10.77;3.58;;;;;;;;;;6154965;23;20395;-85
2022/05/07 02:10:34;;;;;;;13.57;4.45;;;;;;;;;;6167251;22;20092;-85
2022/05/07 02:13:07;;;;;;;10.20;3.58;;;;;;;;;;6183416;23;20044;-85
2022/05/07 02:15:35;;;;;;;13.73;3.78;;;;;;;;;;6183463;23;20083;-86
2022/05/07 02:18:01;;;;;;;11.75;3.70;;;;;;;;;;6183167;23;20021;-88
2022/05/07 02:20:35;;;;;;;18.35;3.67;;;;;;;;;;6159854;23;20028;-85
2022/05/07 02:23:01;;;;;;;11.63;3.38;;;;;;;;;;6157396;23;20037;-85
2022/05/07 02:25:27;;;;;;;16.38;3.40;;;;;;;;;;6183944;23;20048;-85
2022/05/07 02:28:00;;;;;;;17.88;3.70;;;;;;;;;;6158911;23;20044;-85
2022/05/07 02:30:27;;;;;;;13.70;3.30;;;;;;;;;;6184651;23;20025;-85
2022/05/07 02:32:53;;;;;;;12.55;3.30;;;;;;;;;;6183373;23;20028;-86
2022/05/07 02:35:26;;;;;;;17.85;3.72;;;;;;;;;;6183449;23;20025;-85
2022/05/07 02:37:54;;;;;;;15.60;4.72;;;;;;;;;;6155897;23;20066;-85
2022/05/07 02:40:20;;;;;;;12.10;3.83;;;;;;;;;;6184007;23;20017;-85
2022/05/07 02:42:53;;;;;;;21.58;3.67;;;;;;;;;;6159250;23;20132;-87
2022/05/07 02:45:20;;;;;;;10.50;3.28;;;;;;;;;;6157195;23;20117;-88
2022/05/07 02:47:46;;;;;;;14.63;3.33;;;;;;;;;;6184208;23;20087;-85
2022/05/07 02:50:19;;;;;;;19.23;2.97;;;;;;;;;;6183717;23;20021;-85
2022/05/07 02:52:46;;;;;;;16.38;3.25;;;;;;;;;;6156339;23;20079;-86
2022/05/07 02:55:12;;;;;;;14.32;3.30;;;;;;;;;;6183540;23;20017;-85
2022/05/07 02:57:46;;;;;;;14.80;3.08;;;;;;;;;;6158308;23;20462;-84
2022/05/07 03:00:15;;;;;;;12.23;3.17;;;;;;;;;;6157685;23;20029;-85
2022/05/07 03:02:41;;;;;;;13.52;3.00;;;;;;;;;;6157390;23;20017;-88
2022/05/07 03:05:14;;;;;;;10.32;2.75;;;;;;;;;;6182413;23;20108;-85
2022/05/07 03:07:41;;;;;;;19.90;3.65;;;;;;;;;;6183974;23;20410;-85
2022/05/07 03:10:07;;;;;;;13.45;3.03;;;;;;;;;;6157408;23;20083;-84
2022/05/07 03:12:47;;;;;;;13.15;3.10;;;;;;;;;;6158657;23;20481;-84
2022/05/07 03:15:13;;;;;;;12.75;3.25;;;;;;;;;;6183691;23;20029;-85
2022/05/07 03:17:40;;;;;;;14.85;3.00;;;;;;;;;;6183099;23;20406;-84
2022/05/07 03:20:16;;;;;;;12.23;3.30;;;;;;;;;;6182438;23;20053;-86
2022/05/07 03:22:45;;;;;;;14.35;3.50;;;;;;;;;;6182937;23;20017;-85
2022/05/07 03:25:12;;;;;;;16.63;3.42;;;;;;;;;;6157100;23;20359;-85
2022/05/07 03:27:46;;;;;;;17.75;3.75;;;;;;;;;;6158831;23;20056;-85
2022/05/07 03:30:12;;;;;;;15.77;3.00;;;;;;;;;;6183931;23;20052;-85
2022/05/07 03:32:39;;;;;;;11.90;3.40;;;;;;;;;;6182942;23;20048;-84
2022/05/07 03:35:12;;;;;;;16.45;3.65;;;;;;;;;;6182767;23;20052;-86
2022/05/07 03:37:39;;;;;;;18.23;3.35;;;;;;;;;;6157228;23;20059;-86
2022/05/07 03:40:05;;;;;;;16.58;2.83;;;;;;;;;;6157766;23;20024;-85
2022/05/07 03:42:38;;;;;;;11.80;3.08;;;;;;;;;;6182784;23;20064;-86
2022/05/07 03:45:05;;;;;;;17.05;3.55;;;;;;;;;;6182693;23;20057;-86
2022/05/07 03:47:32;;;;;;;20.30;3.83;;;;;;;;;;6183184;23;20021;-86
2022/05/07 03:50:05;;;;;;;14.93;2.70;;;;;;;;;;6158303;23;20048;-86
2022/05/07 03:55:23;;;;;;;15.25;3.28;;;;;;;;;;6182959;23;20434;-87
2022/05/07 03:57:50;;;;;;;16.45;4.28;;;;;;;;;;6157224;23;20051;-87
2022/05/07 04:00:17;;;;;;;10.43;2.93;;;;;;;;;;6183211;23;20028;-85
2022/05/07 04:02:49;;;;;;;14.70;3.28;;;;;;;;;;6159659;23;20036;-86
2022/05/07 04:05:16;;;;;;;14.53;3.30;;;;;;;;;;6183224;23;20330;-86
2022/05/07 04:07:42;;;;;;;18.85;3.40;;;;;;;;;;6182708;23;20355;-84
2022/05/07 04:10:29;;;;;;;16.05;3.05;;;;;;;;;;6185142;22;20083;-86
2022/05/07 04:13:02;;;;;;;8.88;3.03;;;;;;;;;;6182889;23;20108;-87
2022/05/07 04:15:36;;;;;;;8.48;2.70;;;;;;;;;;6158743;23;20029;-86
2022/05/07 04:18:03;;;;;;;;;;;;;;;;;;6159143;23;20068;-86
2022/05/07 04:20:30;;;;;;;10.13;2.92;;;;;;;;;;6158602;23;19920;-85
2022/05/07 04:23:04;;;;;;;12.55;3.38;;;;;;;;;;6159241;23;20032;-86
2022/05/07 04:25:38;;;;;;;10.23;2.72;;;;;;;;;;6159439;23;20025;-86
2022/05/07 04:28:11;;;;;;;16.23;3.58;;;;;;;;;;6184563;23;20048;-86
2022/05/07 04:30:38;;;;;;;17.08;3.75;;;;;;;;;;6184204;23;20060;-86
2022/05/07 04:33:06;;;;;;;16.70;3.30;;;;;;;;;;6157998;23;20501;-86
2022/05/07 04:35:38;;;;;;;16.63;3.22;;;;;;;;;;6184458;23;20272;-85
2022/05/07 04:38:05;;;;;;;14.63;3.45;;;;;;;;;;6183878;23;20041;-87
2022/05/07 04:40:31;;;;;;;17.27;3.88;;;;;;;;;;6158990;23;20075;-85
2022/05/07 04:43:04;;;;;;;20.02;4.20;;;;;;;;;;6183664;23;20033;-86
2022/05/07 04:45:31;;;;;;;10.98;3.53;;;;;;;;;;6158523;23;20087;-86
2022/05/07 04:47:57;;;;;;;18.17;4.20;;;;;;;;;;6184772;23;20045;-86
2022/05/07 04:50:30;;;;;;;20.13;4.25;;;;;;;;;;6184751;23;20067;-86
2022/05/07 04:52:57;;;;;;;17.35;4.05;;;;;;;;;;6157885;23;20045;-86
2022/05/07 04:55:23;;;;;;;20.42;4.55;;;;;;;;;;6157870;23;20418;-86
2022/05/07 04:57:57;;;;;;;22.30;4.50;;;;;;;;;;6159795;23;20088;-86
2022/05/07 05:00:23;;;;;;;16.33;4.45;;;;;;;;;;6185107;23;20029;-86
2022/05/07 05:02:50;;;;;;;23.65;4.50;;;;;;;;;;6157915;23;20044;-85
2022/05/07 05:05:25;;;;;;;14.45;4.25;;;;;;;;;;6159289;23;20127;-86
2022/05/07 05:07:52;;;;;;;16.27;4.50;;;;;;;;;;6157975;23;20021;-85
2022/05/07 05:10:20;;;;;;;19.50;4.68;;;;;;;;;;6159840;22;20040;-86
2022/05/07 05:13:00;;;;;;;21.20;4.78;;;;;;;;;;6184192;23;20485;-85
2022/05/07 05:15:26;;;;;;;16.58;4.70;;;;;;;;;;6185164;23;20100;-85
2022/05/07 05:17:53;;;;;;;18.60;4.07;;;;;;;;;;6184167;23;20672;-87
2022/05/07 05:20:26;;;;;;;20.88;4.47;;;;;;;;;;6184203;23;20029;-86
2022/05/07 05:22:53;;;;;;;22.48;5.10;;;;;;;;;;6158257;23;20299;-86
2022/05/07 05:25:20;;;;;;;21.85;4.32;;;;;;;;;;6157134;23;20272;-85
2022/05/07 05:27:53;;;;;;;19.90;4.00;;;;;;;;;;6159131;23;20021;-85
2022/05/07 05:30:20;;;;;;;15.30;4.35;;;;;;;;;;6184587;23;20025;-86
2022/05/07 05:32:46;;;;;;;19.10;5.15;;;;;;;;;;6185141;23;20664;-86
2022/05/07 05:35:19;;;;;;;21.35;5.00;;;;;;;;;;6184422;23;20025;-85
2022/05/07 05:37:46;;;;;;;19.30;4.40;;;;;;;;;;6157258;23;20060;-85
2022/05/07 05:40:13;;;;;;;20.70;4.72;;;;;;;;;;6184664;23;20816;-86
2022/05/07 05:42:47;;;;;;;22.60;4.95;;;;;;;;;;6158897;23;20017;-86
2022/05/07 05:45:14;;;;;;;15.30;4.33;;;;;;;;;;6158550;23;20032;-86
2022/05/07 05:47:40;;;;;;;20.35;4.63;;;;;;;;;;6158238;23;20021;-86
2022/05/07 05:50:13;;;;;;;19.35;4.88;;;;;;;;;;6159477;23;20071;-87
2022/05/07 05:52:40;;;;;;;14.18;4.32;;;;;;;;;;6158052;23;20017;-86
2022/05/07 05:55:07;;;;;;;16.33;4.80;;;;;;;;;;6183684;23;20469;-86
2022/05/07 05:57:39;;;;;;;18.88;4.55;;;;;;;;;;6183295;23;20021;-86
2022/05/07 06:00:09;;;;;;;16.90;4.88;;;;;;;;;;6157631;23;20104;-86
2022/05/07 06:02:36;;;;;;;24.27;4.90;;;;;;;;;;6183774;23;20024;-86
2022/05/07 06:05:08;;;;;;;29.95;4.85;;;;;;;;;;6183595;23;20036;-86
2022/05/07 06:07:35;;;;;;;23.67;5.18;;;;;;;;;;6157653;23;20667;-86
2022/05/07 06:10:02;;;;;;;21.90;5.20;;;;;;;;;;6184621;22;20505;-87
2022/05/07 06:12:42;;;;;;;23.83;5.40;;;;;;;;;;6183864;23;20067;-87
2022/05/07 06:15:10;;;;;;;15.65;4.10;;;;;;;;;;6157939;23;20028;-88
2022/05/07 06:17:43;;;;;;;17.77;4.55;;;;;;;;;;6158730;23;20079;-88
2022/05/07 06:20:10;;;;;;;20.25;4.15;;;;;;;;;;6183966;23;20017;-90
2022/05/07 06:22:37;;;;;;;24.73;5.33;;;;;;;;;;6157828;23;20017;-89
2022/05/07 06:27:54;;;;;;;16.85;3.70;;;;;;;;;;6184538;23;20076;-88
2022/05/07 06:30:27;;;;;;;15.20;3.85;;;;;;;;;;6160074;23;20354;-89
2022/05/07 06:32:54;;;;;;;12.95;3.30;;;;;;;;;;6183169;23;20478;-89
2022/05/07 06:35:21;;;;;;;10.45;3.20;;;;;;;;;;6183921;23;20467;-88
2022/05/07 06:37:55;;;;;;;18.52;4.05;;;;;;;;;;6159240;23;20047;-88
2022/05/07 06:40:21;;;;;;;15.45;3.70;;;;;;;;;;6157512;23;20533;-89
2022/05/07 06:42:48;;;;;;;15.88;3.90;;;;;;;;;;6182547;23;20060;-90
2022/05/07 06:45:21;;;;;;;11.63;3.17;;;;;;;;;;6185269;23;20020;-91
2022/05/07 06:47:48;;;;;;;9.40;2.78;;;;;;;;;;6179748;23;20039;-92
2022/05/07 06:50:14;;;;;;;15.25;3.55;;;;;;;;;;6178975;23;20060;-91
2022/05/07 06:53:01;;;;;;;11.95;3.45;;;;;;;;;;6141630;23;20150;-63
2022/05/07 06:55:54;;;;;;;14.55;3.35;;;;;;;;;;6170258;23;20117;-63
2022/05/07 06:58:33;;;;;;;9.63;3.30;;;;;;;;;;6173648;23;20134;-62
2022/05/07 07:01:01;;;;;;;10.05;3.45;;;;;;;;;;6174382;23;20080;-62
2022/05/07 07:03:35;;;;;;;13.75;3.17;;;;;;;;;;6175907;23;20035;-62
2022/05/07 07:06:02;;;;;;;14.60;3.40;;;;;;;;;;6177579;23;20073;-61
2022/05/07 07:08:29;;;;;;;15.18;3.65;;;;;;;;;;6179309;23;20077;-50
2022/05/07 07:11:03;;;;;;;10.95;2.95;;;;;;;;;;6178712;23;20055;-52
2022/05/07 07:13:29;;;;;;;13.52;3.83;;;;;;;;;;6178340;23;20053;-51
2022/05/07 07:15:55;;;;;;;18.13;3.42;;;;;;;;;;6178138;23;20048;-52
2022/05/07 07:18:29;;;;;;;13.65;3.33;;;;;;;;;;6178456;23;20021;-49
2022/05/07 07:20:55;;;;;;;7.65;3.08;;;;;;;;;;6177480;23;20032;-51
2022/05/07 07:23:21;;;;;;;11.85;2.97;;;;;;;;;;6176350;23;20627;-54
2022/05/07 07:25:54;;;;;;;9.18;2.97;;;;;;;;;;6174541;23;20029;-51
2022/05/07 07:28:21;;;;;;;10.90;3.47;;;;;;;;;;6176382;23;20080;-62
2022/05/07 07:30:49;;;;;;;11.48;2.72;;;;;;;;;;6176499;23;20025;-47
2022/05/07 07:33:23;;;;;;;13.93;3.42;;;;;;;;;;6177144;23;20107;-51
2022/05/07 07:35:49;;;;;;;11.90;2.90;;;;;;;;;;6177724;23;20028;-48
2022/05/07 07:38:18;;;;;;;10.25;3.03;;;;;;;;;;6178494;23;20025;-51
2022/05/07 07:40:52;;;;;;;11.05;3.20;;;;;;;;;;6178123;23;20025;-49
2022/05/07 07:43:18;;;;;;;11.68;3.28;;;;;;;;;;6178349;23;20397;-51
2022/05/07 07:48:39;;;;;;;9.07;2.75;;;;;;;;;;6178334;23;20025;-61
2022/05/07 07:51:06;;;;;;;6.25;2.35;;;;;;;;;;6178820;23;20033;-53
2022/05/07 07:53:40;;;;;;;6.90;2.40;;;;;;;;;;6210433;23;20062;-54
2022/05/07 07:56:19;;;;;;;10.85;2.67;;;;;;;;;;6241033;23;20031;-56
2022/05/07 07:58:45;;;;;;;9.50;3.13;;;;;;;;;;6241156;23;20027;-55
2022/05/07 08:01:12;;;;;;;8.52;2.40;;;;;;;;;;6241345;23;20020;-57
2022/05/07 08:03:50;;;;;;;6.38;2.42;;;;;;;;;;6241646;23;20028;-55
2022/05/07 08:06:16;;;;;;;8.52;2.63;;;;;;;;;;6241441;23;20099;-57
2022/05/07 08:11:40;;;;;;;12.35;3.05;;;;;;;;;;6241032;23;20646;-54
2022/05/07 08:14:08;;;;;;;7.78;2.95;;;;;;;;;;6240448;23;20055;-56
2022/05/07 08:16:34;;;;;;;7.78;2.42;;;;;;;;;;6240222;23;20024;-54
2022/05/07 08:19:08;;;;;;;9.55;2.75;;;;;;;;;;6241044;23;20059;-55
2022/05/07 08:21:34;;;;;;;10.77;2.97;;;;;;;;;;6240487;23;20028;-57
2022/05/07 08:24:01;;;;;;;6.53;3.00;;;;;;;;;;6240687;23;20323;-49
2022/05/07 08:26:34;;;;;;;8.25;3.05;;;;;;;;;;6240949;23;20067;-63
2022/05/07 08:29:00;;;;;;;6.43;2.33;;;;;;;;;;6241494;23;20055;-58
2022/05/07 08:31:27;;;;;;;10.13;2.90;;;;;;;;;;6240539;23;20107;-58
2022/05/07 08:34:00;;;;;;;9.63;2.95;;;;;;;;;;6240938;23;20461;-58
2022/05/07 08:36:26;;;;;;;10.60;3.05;;;;;;;;;;6239687;23;20413;-57
2022/05/07 08:38:53;;;;;;;7.53;2.77;;;;;;;;;;6240047;23;20047;-57
2022/05/07 08:41:27;;;;;;;8.57;2.83;;;;;;;;;;6241040;23;20030;-56
2022/05/07 08:43:53;;;;;;;8.85;2.65;;;;;;;;;;6240482;23;20508;-55
2022/05/07 08:46:19;;;;;;;11.73;3.63;;;;;;;;;;6240925;23;20074;-52
2022/05/07 08:48:53;;;;;;;9.00;2.80;;;;;;;;;;6240002;23;20020;-48
2022/05/07 08:51:22;;;;;;;7.57;2.70;;;;;;;;;;6241428;23;20098;-52
2022/05/07 08:53:49;;;;;;;6.63;2.78;;;;;;;;;;6238625;23;20051;-48
2022/05/07 08:56:24;;;;;;;8.10;2.47;;;;;;;;;;6240799;23;20051;-47
2022/05/07 08:58:52;;;;;;;6.97;2.10;;;;;;;;;;6238417;23;20024;-51
2022/05/07 09:01:19;;;;;;;10.40;2.67;;;;;;;;;;6240528;23;20417;-48
2022/05/07 09:03:52;;;;;;;6.38;2.40;;;;;;;;;;6238643;23;20334;-58
2022/05/07 09:06:20;;;;;;;7.75;2.40;;;;;;;;;;6238267;23;20066;-48
2022/05/07 09:08:46;;;;;;;4.85;2.05;;;;;;;;;;6240146;23;20461;-48
2022/05/07 09:11:19;;;;;;;3.72;1.70;;;;;;;;;;6240134;23;20056;-49
2022/05/07 09:13:46;;;;;;;9.15;2.60;;;;;;;;;;6240448;23;20024;-46
2022/05/07 09:16:13;;;;;;;3.85;1.90;;;;;;;;;;6240225;23;20020;-46
2022/05/07 09:18:48;;;;;;;5.80;2.20;;;;;;;;;;6241200;23;20105;-47
2022/05/07 09:21:23;;;;;;;;;;;;;;;;;;6241148;23;20060;-55
2022/05/07 09:24:06;;;;;;;6.45;2.10;;;;;;;;;;6239412;23;19965;-49
2022/05/07 09:26:38;;;;;;;7.57;2.03;;;;;;;;;;6238710;23;20028;-52
2022/05/07 09:29:12;;;;;;;4.90;2.30;;;;;;;;;;6239014;23;20052;-50
2022/05/07 09:31:41;;;;;;;;;;;;;;;;;;6239847;23;20043;-53
2022/05/07 09:37:16;;;;;;;6.60;2.10;;;;;;;;;;6238337;23;20050;-52
2022/05/07 09:39:47;;;;;;;4.30;1.63;;;;;;;;;;6237772;23;20062;-52
2022/05/07 09:42:21;;;;;;;3.78;1.90;;;;;;;;;;6239526;23;20070;-67
2022/05/07 09:44:48;;;;;;;6.28;1.90;;;;;;;;;;6239767;23;20047;-67
2022/05/07 09:47:15;;;;;;;4.45;1.85;;;;;;;;;;6240063;23;20051;-66
2022/05/07 09:52:32;;;;;;;8.27;2.42;;;;;;;;;;6240720;23;20024;-67
2022/05/07 09:58:16;;;;;;;4.13;1.63;;;;;;;;;;6239392;23;20424;-67
2022/05/07 10:00:57;;;;;;;5.80;1.60;;;;;;;;;;6215685;23;20410;-54
2022/05/07 10:03:37;;;;;;;6.05;1.75;;;;;;;;;;6239766;23;20024;-54
2022/05/07 10:06:10;;;;;;;4.40;1.38;;;;;;;;;;6239614;23;20074;-56
2022/05/07 10:08:37;;;;;;;3.47;1.90;;;;;;;;;;6240305;23;20051;-52
2022/05/07 10:11:04;;;;;;;2.28;1.52;;;;;;;;;;6240118;23;20070;-53
2022/05/07 10:13:38;;;;;;;3.95;1.33;;;;;;;;;;6239573;23;20068;-54
2022/05/07 10:16:05;;;;;;;6.22;2.33;;;;;;;;;;6239648;23;20095;-54
2022/05/07 10:18:35;;;;;;;4.27;2.33;;;;;;;;;;6239441;23;20026;-54
2022/05/07 10:21:12;;;;;;;3.05;1.60;;;;;;;;;;6239862;23;20024;-58
2022/05/07 10:23:55;;;;;;;4.85;2.35;;;;;;;;;;6240110;23;20075;-58
2022/05/07 10:26:41;;;;;;;3.42;1.50;;;;;;;;;;6239728;23;20070;-58
2022/05/07 10:29:19;;;;;;;4.30;1.50;;;;;;;;;;6239555;23;20020;-59
2022/05/07 10:32:19;;;;;;;4.40;1.88;;;;;;;;;;6240311;23;20043;-58
2022/05/07 10:34:50;;;;;;;5.18;1.80;;;;;;;;;;6233298;23;20071;-58
2022/05/07 10:37:23;;;;;;;2.80;1.40;;;;;;;;;;6239496;23;20055;-68
2022/05/07 10:39:51;;;;;;;5.40;2.00;;;;;;;;;;6239484;23;20488;-58
2022/05/07 10:42:19;;;;;;;4.97;1.65;;;;;;;;;;6239783;23;20069;-59
2022/05/07 10:44:52;;;;;;;3.30;1.40;;;;;;;;;;6240929;23;20064;-59
2022/05/07 10:47:19;;;;;;;2.67;1.70;;;;;;;;;;6240372;23;20020;-59
2022/05/07 10:49:56;;;;;;;3.55;1.83;;;;;;;;;;6239853;23;20032;-59
2022/05/07 10:52:31;;;;;;;5.93;2.08;;;;;;;;;;6239892;23;20024;-59
2022/05/07 10:55:11;;;;;;;5.70;1.30;;;;;;;;;;6238488;23;20550;-59
2022/05/07 10:57:48;;;;;;;3.42;1.63;;;;;;;;;;6239664;23;20421;-57
2022/05/07 11:00:15;;;;;;;2.80;1.40;;;;;;;;;;6239804;23;20491;-51
2022/05/07 11:02:42;;;;;;;;;;;;;;;;;;6240821;23;20024;-53
2022/05/07 11:05:16;;;;;;;4.10;1.65;;;;;;;;;;6239923;23;19920;-54
2022/05/07 11:07:43;;;;;;;6.10;2.00;;;;;;;;;;6240142;23;20388;-51
2022/05/07 11:10:10;;;;;;;2.97;1.43;;;;;;;;;;6240115;23;20047;-52
2022/05/07 11:12:44;;;;;;;6.75;1.60;;;;;;;;;;6240491;23;20059;-49
2022/05/07 11:15:10;;;;;;;3.63;1.42;;;;;;;;;;6239911;23;20056;-50
2022/05/07 11:17:40;;;;;;;1.35;1.10;;;;;;;;;;6240120;23;20500;-59
2022/05/07 11:20:14;;;;;;;6.23;1.80;;;;;;;;;;6240343;23;20020;-52
2022/05/07 11:22:41;;;;;;;2.85;1.52;;;;;;;;;;6240401;23;20248;-52
2022/05/07 11:25:08;;;;;;;3.80;1.60;;;;;;;;;;6240152;23;20024;-53
2022/05/07 11:27:41;;;;;;;2.67;1.20;;;;;;;;;;6239023;23;20024;-53
2022/05/07 11:30:12;;;;;;;2.35;1.40;;;;;;;;;;6239703;23;20377;-50
2022/05/07 11:32:39;;;;;;;4.35;1.48;;;;;;;;;;6240216;23;20071;-50
2022/05/07 11:35:13;;;;;;;3.67;1.52;;;;;;;;;;6239223;23;20024;-59
2022/05/07 11:37:43;;;;;;;4.00;1.23;;;;;;;;;;6239729;23;20449;-59
2022/05/07 11:40:10;;;;;;;3.08;1.15;;;;;;;;;;6239836;23;20027;-59
2022/05/07 11:42:45;;;;;;;5.45;1.38;;;;;;;;;;6240276;23;20095;-59
2022/05/07 11:45:27;;;;;;;1.52;0.98;;;;;;;;;;6239219;23;20027;-60
2022/05/07 11:48:13;;;;;;;3.53;1.25;;;;;;;;;;6239312;23;20388;-59
2022/05/07 11:50:41;;;;;;;1.60;1.20;;;;;;;;;;6239410;23;20052;-59
2022/05/07 11:53:40;;;;;;;1.48;1.10;;;;;;;;;;6240810;22;20024;-60
2022/05/07 11:56:16;;;;;;;2.53;1.50;;;;;;;;;;6239087;23;20027;-58
2022/05/07 11:58:52;;;;;;;2.58;1.02;;;;;;;;;;6239454;23;20412;-62
2022/05/07 12:01:22;;;;;;;2.90;1.15;;;;;;;;;;6239578;23;20357;-62
2022/05/07 12:03:50;;;;;;;2.45;1.10;;;;;;;;;;6240334;23;20070;-62
2022/05/07 12:06:25;;;;;;;3.33;1.10;;;;;;;;;;6239036;23;20433;-62
2022/05/07 12:09:05;;;;;;;2.50;1.30;;;;;;;;;;6239847;23;20052;-62
2022/05/07 12:11:45;;;;;;;3.67;1.40;;;;;;;;;;6235570;23;20048;-62
2022/05/07 12:14:12;;;;;;;2.22;1.10;;;;;;;;;;6235932;23;20070;-60
2022/05/07 12:19:37;;;;;;;2.00;0.90;;;;;;;;;;6238998;23;20694;-62
2022/05/07 12:30:33;;;;;;;2.63;1.10;;;;;;;;;;6239393;23;20095;-62
2022/05/07 12:32:59;;;;;;;1.77;1.05;;;;;;;;;;6239558;23;20472;-60
2022/05/07 12:35:26;;;;;;;2.60;1.20;;;;;;;;;;6236393;23;20118;-58
2022/05/07 12:37:59;;;;;;;1.77;1.13;;;;;;;;;;6240859;23;20239;-59
2022/05/07 12:40:25;;;;;;;2.85;1.20;;;;;;;;;;6240913;23;20095;-58
2022/05/07 12:42:51;;;;;;;1.67;1.05;;;;;;;;;;6240215;23;20051;-59
2022/05/07 12:45:25;;;;;;;2.55;1.10;;;;;;;;;;6238370;23;20032;-59
2022/05/07 12:47:51;;;;;;;2.63;0.88;;;;;;;;;;6240399;23;20035;-58
2022/05/07 12:50:17;;;;;;;1.27;0.90;;;;;;;;;;6239492;23;20060;-58
2022/05/07 12:52:51;;;;;;;1.30;1.00;;;;;;;;;;6241925;23;20028;-63
2022/05/07 12:55:32;;;;;;;1.63;1.13;;;;;;;;;;6237037;23;20028;-48
2022/05/07 12:58:08;;;;;;;2.30;0.98;;;;;;;;;;6242268;23;20078;-49
2022/05/07 13:00:35;;;;;;;2.42;1.50;;;;;;;;;;6240676;23;20016;-48
2022/05/07 13:03:02;;;;;;;4.10;1.20;;;;;;;;;;6240553;23;20020;-48
2022/05/07 13:05:36;;;;;;;1.50;1.08;;;;;;;;;;6239918;23;20031;-50
2022/05/07 13:08:18;;;;;;;2.22;1.05;;;;;;;;;;6239853;23;20469;-52
2022/05/07 13:10:52;;;;;;;3.67;1.20;;;;;;;;;;6238800;23;20028;-59
2022/05/07 13:13:22;;;;;;;4.78;1.30;;;;;;;;;;6241835;23;20058;-59
2022/05/07 13:15:49;;;;;;;1.95;0.93;;;;;;;;;;6240392;23;20024;-67
2022/05/07 13:18:24;;;;;;;1.40;0.98;;;;;;;;;;6239872;23;20370;-67
2022/05/07 13:20:52;;;;;;;5.07;1.10;;;;;;;;;;6240196;23;20077;-67
2022/05/07 13:23:18;;;;;;;2.28;0.98;;;;;;;;;;6239633;23;20785;-67
2022/05/07 13:25:51;;;;;;;2.13;1.10;;;;;;;;;;6237873;23;20489;-67
2022/05/07 13:28:18;;;;;;;2.00;1.00;;;;;;;;;;6238684;23;20024;-66
2022/05/07 13:30:44;;;;;;;1.35;1.10;;;;;;;;;;6241012;23;20088;-51
2022/05/07 13:33:18;;;;;;;5.68;1.70;;;;;;;;;;6240516;23;20024;-60
2022/05/07 13:35:44;;;;;;;3.45;1.20;;;;;;;;;;6241216;23;20489;-61
2022/05/07 13:38:11;;;;;;;2.92;1.20;;;;;;;;;;6240883;23;20560;-60
2022/05/07 13:40:46;;;;;;;3.17;1.05;;;;;;;;;;6240557;23;20055;-60
2022/05/07 13:43:13;;;;;;;3.72;1.20;;;;;;;;;;6240027;23;20063;-61
2022/05/07 13:45:39;;;;;;;2.08;1.10;;;;;;;;;;6238602;23;20561;-60
2022/05/07 13:48:13;;;;;;;3.67;1.80;;;;;;;;;;6240116;23;20092;-60
2022/05/07 13:50:39;;;;;;;3.13;1.20;;;;;;;;;;6237202;23;20020;-51
2022/05/07 13:53:07;;;;;;;2.55;1.10;;;;;;;;;;6240392;23;20078;-61
2022/05/07 13:55:46;;;;;;;1.40;0.98;;;;;;;;;;6237435;22;20102;-61
2022/05/07 13:58:12;;;;;;;2.50;1.25;;;;;;;;;;6241072;23;20551;-61
2022/05/07 14:00:40;;;;;;;2.05;1.25;;;;;;;;;;6237862;23;20793;-62
2022/05/07 14:03:14;;;;;;;1.38;0.98;;;;;;;;;;6240723;23;20016;-62
2022/05/07 14:05:41;;;;;;;2.08;1.00;;;;;;;;;;6239886;23;20020;-61
2022/05/07 14:08:08;;;;;;;3.17;1.17;;;;;;;;;;6238931;23;20060;-68
2022/05/07 14:10:42;;;;;;;4.30;1.45;;;;;;;;;;6214981;23;20031;-68
2022/05/07 14:13:09;;;;;;;5.40;2.00;;;;;;;;;;6237450;23;20051;-69
2022/05/07 14:15:35;;;;;;;3.22;1.40;;;;;;;;;;6240076;23;20117;-69
2022/05/07 14:18:09;;;;;;;2.72;1.27;;;;;;;;;;6240519;23;20016;-69
2022/05/07 14:20:41;;;;;;;6.13;1.85;;;;;;;;;;6239121;23;20024;-68
2022/05/07 14:23:11;;;;;;;2.97;1.73;;;;;;;;;;6240421;23;20066;-67
2022/05/07 14:25:45;;;;;;;2.75;1.40;;;;;;;;;;6240411;23;20024;-67
2022/05/07 14:28:11;;;;;;;2.97;1.50;;;;;;;;;;6241153;23;20059;-60
2022/05/07 14:30:41;;;;;;;2.30;1.20;;;;;;;;;;6238605;23;20087;-61
2022/05/07 14:33:15;;;;;;;3.05;1.42;;;;;;;;;;6239969;23;20357;-61
2022/05/07 14:35:41;;;;;;;6.18;1.40;;;;;;;;;;6240037;23;20099;-62
2022/05/07 14:38:08;;;;;;;1.77;1.15;;;;;;;;;;6240728;23;20024;-62
2022/05/07 14:40:43;;;;;;;3.78;1.23;;;;;;;;;;6239002;23;20020;-61
2022/05/07 14:43:09;;;;;;;2.60;1.10;;;;;;;;;;6241050;23;20066;-62
2022/05/07 14:45:36;;;;;;;3.65;1.30;;;;;;;;;;6213760;23;20063;-54
2022/05/07 14:48:10;;;;;;;2.60;1.50;;;;;;;;;;6240226;23;20567;-60
2022/05/07 14:50:36;;;;;;;3.60;1.50;;;;;;;;;;6236795;23;20028;-60
2022/05/07 14:53:03;;;;;;;3.40;1.52;;;;;;;;;;6240172;23;20357;-60
2022/05/07 14:55:42;;;;;;;3.75;1.27;;;;;;;;;;6237602;23;20052;-60
2022/05/07 14:58:15;;;;;;;3.05;1.50;;;;;;;;;;6240861;23;20047;-60
2022/05/07 15:00:49;;;;;;;3.03;1.40;;;;;;;;;;6239271;23;20024;-60
2022/05/07 15:03:15;;;;;;;2.53;1.67;;;;;;;;;;6240501;23;20031;-60
2022/05/07 15:05:41;;;;;;;3.85;1.73;;;;;;;;;;6239807;23;20043;-60
2022/05/07 15:11:00;;;;;;;3.33;1.45;;;;;;;;;;6240566;23;20048;-50
2022/05/07 15:13:33;;;;;;;2.92;1.30;;;;;;;;;;6240347;23;20109;-50
2022/05/07 15:15:59;;;;;;;2.15;1.45;;;;;;;;;;6239482;23;20051;-50
2022/05/07 15:18:25;;;;;;;2.78;1.40;;;;;;;;;;6238706;23;20024;-53
2022/05/07 15:21:05;;;;;;;2.95;1.30;;;;;;;;;;6239381;23;20055;-50
2022/05/07 15:23:31;;;;;;;5.05;1.70;;;;;;;;;;6238522;23;20394;-67
2022/05/07 15:25:58;;;;;;;3.47;1.60;;;;;;;;;;6239694;23;20023;-61
2022/05/07 15:28:31;;;;;;;3.38;1.58;;;;;;;;;;6239210;23;20099;-52
2022/05/07 15:30:57;;;;;;;3.63;1.40;;;;;;;;;;6240456;23;20071;-52
2022/05/07 15:39:05;;;;;;;2.97;1.40;;;;;;;;;;6239463;23;20027;-50
2022/05/07 15:41:39;;;;;;;4.80;1.50;;;;;;;;;;6240197;23;20023;-52